Time;durP1;ratioP1;P1;durP2;ratioP2;P2;SDS_P1;SDS_P2;PMS_P1;PMS_P2;Temp;Humidity;BMP_temperature;BMP_pressure;BME280_temperature;BME280_humidity;BME280_pressure;Samples;Min_cycle;Max_cycle;Signal;HPM_P1;HPM_P2
2023/02/24 00:01:36;;;;;;;49.78;13.38;;;9.30;99.90;;;;;;5033999;28;20222;-63
2023/02/24 00:04:07;;;;;;;44.63;12.98;;;9.40;99.90;;;;;;5030796;28;20467;-62
2023/02/24 00:06:36;;;;;;;36.65;12.88;;;9.30;99.90;;;;;;5032325;28;20029;-63
2023/02/24 00:09:29;;;;;;;45.63;13.95;;;9.30;99.90;;;;;;5037683;28;20099;-63
2023/02/24 00:12:02;;;;;;;45.70;13.55;;;9.30;99.90;;;;;;5030931;28;20108;-62
2023/02/24 00:14:31;;;;;;;41.70;14.15;;;9.30;99.90;;;;;;5035053;28;20491;-62
2023/02/24 00:16:59;;;;;;;43.25;13.80;;;9.20;99.90;;;;;;5016489;28;20842;-63
2023/02/24 00:19:28;;;;;;;44.47;13.65;;;9.20;99.90;;;;;;5035021;28;20315;-63
2023/02/24 00:21:54;;;;;;;50.47;13.52;;;9.20;99.90;;;;;;5029892;28;20026;-63
2023/02/24 00:24:20;;;;;;;43.97;13.48;;;9.20;99.90;;;;;;5032276;28;20084;-62
2023/02/24 00:26:53;;;;;;;50.40;14.98;;;9.20;99.90;;;;;;5032093;28;20040;-63
2023/02/24 00:29:25;;;;;;;43.72;12.05;;;9.20;99.90;;;;;;5018999;28;20037;-63
2023/02/24 00:31:59;;;;;;;42.67;12.57;;;9.20;99.90;;;;;;5037391;28;20124;-62
2023/02/24 00:34:29;;;;;;;44.47;13.70;;;9.20;99.90;;;;;;5035916;28;20029;-62
2023/02/24 00:36:56;;;;;;;42.75;13.13;;;9.20;99.90;;;;;;5033438;28;20643;-63
2023/02/24 00:39:31;;;;;;;42.22;12.75;;;9.20;99.90;;;;;;5014720;28;20029;-63
2023/02/24 00:42:03;;;;;;;47.85;12.98;;;9.20;99.90;;;;;;5033074;28;20457;-62
2023/02/24 00:44:39;;;;;;;38.63;12.00;;;9.30;99.90;;;;;;5031806;28;20027;-62
2023/02/24 00:47:09;;;;;;;43.10;10.93;;;9.20;99.90;;;;;;5014136;28;20041;-63
2023/02/24 00:49:40;;;;;;;27.58;8.50;;;9.10;99.90;;;;;;5031174;28;20033;-63
2023/02/24 00:52:14;;;;;;;25.60;7.07;;;9.00;99.70;;;;;;5015079;28;20041;-62
2023/02/24 00:54:44;;;;;;;19.23;7.28;;;8.90;99.90;;;;;;5032192;28;20071;-62
2023/02/24 00:57:10;;;;;;;23.10;6.47;;;8.80;99.90;;;;;;5020969;28;20032;-62
2023/02/24 00:59:37;;;;;;;22.45;6.78;;;8.80;99.50;;;;;;5015221;28;20037;-62
2023/02/24 01:02:05;;;;;;;26.48;5.95;;;8.80;99.10;;;;;;5031830;28;20037;-63
2023/02/24 01:04:32;;;;;;;20.55;5.05;;;8.70;99.10;;;;;;5031551;28;20456;-62
2023/02/24 01:07:01;;;;;;;20.85;5.47;;;8.70;99.30;;;;;;5031829;28;20030;-61
2023/02/24 01:09:29;;;;;;;18.02;5.00;;;8.60;99.10;;;;;;5013816;28;20106;-63
2023/02/24 01:14:44;;;;;;;26.17;4.75;;;8.50;99.10;;;;;;5032601;28;20465;-62
2023/02/24 01:17:11;;;;;;;17.70;4.25;;;8.50;99.00;;;;;;5033106;28;20082;-63
2023/02/24 01:19:37;;;;;;;22.45;5.05;;;8.40;98.90;;;;;;5033043;28;20500;-63
2023/02/24 01:22:08;;;;;;;14.25;3.55;;;8.30;98.80;;;;;;5016723;28;20052;-62
2023/02/24 01:24:37;;;;;;;15.63;2.47;;;8.30;98.70;;;;;;5030876;28;20130;-62
2023/02/24 01:27:05;;;;;;;14.60;2.53;;;8.20;98.80;;;;;;5011567;28;20812;-60
2023/02/24 01:29:31;;;;;;;17.73;2.60;;;8.10;98.70;;;;;;5014643;28;20033;-60
2023/02/24 01:31:57;;;;;;;9.77;1.83;;;8.10;97.80;;;;;;5011382;28;20067;-61
2023/02/24 01:34:25;;;;;;;19.83;3.28;;;7.90;98.20;;;;;;5016963;28;20060;-61
2023/02/24 01:36:51;;;;;;;13.35;2.13;;;7.90;98.20;;;;;;5020071;28;20112;-61
2023/02/24 01:39:18;;;;;;;12.38;1.58;;;7.90;98.20;;;;;;5034909;28;20037;-61
2023/02/24 01:41:48;;;;;;;10.70;2.28;;;7.80;98.10;;;;;;5014101;28;20037;-61
2023/02/24 01:44:16;;;;;;;13.40;1.92;;;7.80;98.00;;;;;;5028011;28;20024;-61
2023/02/24 01:46:44;;;;;;;12.50;1.85;;;7.80;97.90;;;;;;5015329;28;20063;-62
2023/02/24 01:49:21;;;;;;;8.15;2.08;;;7.80;97.80;;;;;;5015783;28;20024;-61
2023/02/24 01:52:00;;;;;;;14.32;1.85;;;7.80;97.60;;;;;;5018728;28;20139;-62
2023/02/24 01:54:41;;;;;;;13.45;2.40;;;7.80;97.50;;;;;;5022101;28;20036;-61
2023/02/24 01:57:13;;;;;;;13.20;2.60;;;7.70;97.70;;;;;;5035560;28;20033;-61
2023/02/24 01:59:39;;;;;;;13.55;2.53;;;7.60;97.80;;;;;;5017152;28;20044;-61
2023/02/24 02:02:07;;;;;;;14.70;2.92;;;7.60;98.10;;;;;;5020031;28;20080;-61
2023/02/24 02:04:45;;;;;;;19.48;3.60;;;7.60;98.20;;;;;;5017668;28;20068;-61
2023/02/24 02:07:14;;;;;;;14.25;2.20;;;7.60;97.90;;;;;;5014780;28;20543;-60
2023/02/24 02:09:41;;;;;;;16.13;3.13;;;7.50;97.70;;;;;;5032930;28;20045;-61
2023/02/24 02:12:08;;;;;;;15.73;2.95;;;7.50;97.70;;;;;;5029859;28;20037;-61
2023/02/24 02:14:37;;;;;;;12.88;2.90;;;7.50;97.70;;;;;;5029908;28;20028;-61
2023/02/24 02:17:13;;;;;;;13.02;2.85;;;7.40;97.30;;;;;;5034333;28;20127;-61
2023/02/24 02:19:42;;;;;;;;;;;7.40;97.40;;;;;;5035127;28;20879;-61
2023/02/24 02:22:30;;;;;;;10.50;2.67;;;7.40;97.50;;;;;;5041680;28;19913;-61
2023/02/24 02:25:34;;;;;;;10.45;1.90;;;7.40;97.10;;;;;;5037988;28;20034;-61
2023/02/24 02:28:23;;;;;;;9.15;2.35;;;7.30;96.50;;;;;;4979422;28;20099;-63
2023/02/24 02:31:21;;;;;;;17.70;1.95;;;7.20;96.30;;;;;;5017891;28;20033;-60
2023/02/24 02:34:05;;;;;;;8.80;1.85;;;7.10;95.80;;;;;;5016431;28;20036;-62
2023/02/24 02:36:43;;;;;;;11.57;1.95;;;7.00;95.60;;;;;;5030226;28;20789;-60
2023/02/24 02:39:33;;;;;;;9.10;1.48;;;6.90;95.90;;;;;;5034619;28;20116;-60
2023/02/24 02:42:15;;;;;;;11.93;2.40;;;6.90;96.10;;;;;;5031190;28;20033;-63
2023/02/24 02:44:57;;;;;;;9.45;1.38;;;7.00;96.00;;;;;;5028854;28;20032;-60
2023/02/24 02:48:01;;;;;;;8.50;2.00;;;7.00;95.70;;;;;;5018911;28;20040;-63
2023/02/24 02:51:03;;;;;;;15.45;1.77;;;6.90;95.90;;;;;;5033181;28;20505;-62
2023/02/24 02:53:46;;;;;;;8.55;2.25;;;6.90;95.80;;;;;;4939165;28;20031;-63
2023/02/24 02:56:17;;;;;;;11.45;2.00;;;6.80;96.10;;;;;;5021757;28;20040;-62
2023/02/24 02:58:52;;;;;;;10.00;1.75;;;6.70;95.90;;;;;;5031559;28;20779;-62
2023/02/24 03:01:20;;;;;;;9.85;1.60;;;6.70;96.30;;;;;;5031323;28;20883;-63
2023/02/24 03:03:51;;;;;;;8.75;1.40;;;6.60;96.00;;;;;;5017864;28;20029;-62
2023/02/24 03:06:33;;;;;;;8.07;1.08;;;6.60;96.40;;;;;;5020023;28;20029;-62
2023/02/24 03:09:18;;;;;;;22.45;2.30;;;6.60;96.50;;;;;;5011486;28;20039;-62
2023/02/24 03:11:47;;;;;;;9.90;1.70;;;6.60;96.60;;;;;;5030826;28;20028;-62
2023/02/24 03:14:18;;;;;;;8.02;1.13;;;6.60;96.30;;;;;;5013869;28;20507;-62
2023/02/24 03:16:48;;;;;;;11.27;2.20;;;6.60;96.50;;;;;;5009644;28;20037;-62
2023/02/24 03:19:19;;;;;;;11.57;1.35;;;6.60;96.70;;;;;;5027920;28;20029;-62
2023/02/24 03:21:54;;;;;;;12.93;1.73;;;6.60;96.40;;;;;;5035137;28;20064;-62
2023/02/24 03:24:20;;;;;;;9.55;1.50;;;6.60;96.30;;;;;;5019980;28;20051;-62
2023/02/24 03:27:19;;;;;;;12.13;2.47;;;6.60;96.20;;;;;;5018741;28;20108;-62
2023/02/24 03:29:48;;;;;;;12.70;1.58;;;6.60;96.10;;;;;;5013032;28;20044;-62
2023/02/24 03:32:21;;;;;;;10.80;1.48;;;6.60;96.20;;;;;;5012002;28;20048;-61
2023/02/24 03:34:57;;;;;;;7.03;1.55;;;6.50;96.20;;;;;;5017480;28;20132;-62
2023/02/24 03:37:26;;;;;;;7.13;1.73;;;6.50;95.70;;;;;;5019084;28;20028;-63
2023/02/24 03:39:58;;;;;;;7.65;1.08;;;6.50;95.80;;;;;;5014192;28;20030;-62
2023/02/24 03:42:29;;;;;;;11.25;1.77;;;6.50;96.00;;;;;;5012898;28;20021;-62
2023/02/24 03:44:57;;;;;;;11.25;2.03;;;6.50;95.70;;;;;;5013852;28;20037;-62
2023/02/24 03:47:25;;;;;;;11.35;1.70;;;6.50;95.00;;;;;;5017348;28;20691;-62
2023/02/24 03:49:51;;;;;;;7.25;1.48;;;6.40;95.40;;;;;;5013511;28;20049;-62
2023/02/24 03:52:51;;;;;;;9.50;1.23;;;6.40;95.30;;;;;;5013064;28;20028;-62
2023/02/24 03:55:22;;;;;;;14.80;1.92;;;6.40;95.50;;;;;;5018976;28;20040;-62
2023/02/24 03:58:14;;;;;;;10.60;1.42;;;6.50;95.40;;;;;;5011944;28;20184;-61
2023/02/24 04:01:04;;;;;;;6.03;1.13;;;6.40;94.90;;;;;;5016985;28;20024;-62
2023/02/24 04:04:00;;;;;;;10.02;1.35;;;6.30;95.10;;;;;;5011567;28;20517;-62
2023/02/24 04:06:52;;;;;;;10.93;1.85;;;6.30;94.80;;;;;;5017773;28;20533;-62
2023/02/24 04:09:32;;;;;;;10.65;2.03;;;6.30;95.20;;;;;;5012887;28;20981;-63
2023/02/24 04:12:25;;;;;;;9.85;1.67;;;6.30;95.30;;;;;;5016836;28;20030;-62
2023/02/24 04:15:28;;;;;;;8.13;1.33;;;6.30;95.30;;;;;;5016864;28;20840;-62
2023/02/24 04:18:17;;;;;;;7.90;1.75;;;6.30;95.40;;;;;;5029169;28;20051;-62
2023/02/24 04:20:51;;;;;;;15.07;1.80;;;6.40;95.50;;;;;;5019158;28;20053;-62
2023/02/24 04:23:25;;;;;;;8.38;1.27;;;6.40;95.60;;;;;;5013230;28;20036;-62
2023/02/24 04:25:55;;;;;;;10.88;1.35;;;6.40;95.40;;;;;;5008938;28;20028;-62
2023/02/24 04:28:23;;;;;;;12.15;1.20;;;6.40;95.60;;;;;;5030942;28;20025;-62
2023/02/24 04:30:54;;;;;;;16.65;1.88;;;6.40;95.40;;;;;;5014674;28;20893;-62
2023/02/24 04:33:21;;;;;;;6.75;1.08;;;6.40;95.10;;;;;;5012711;28;20056;-62
2023/02/24 04:35:49;;;;;;;7.45;1.20;;;6.40;94.70;;;;;;5008233;28;20029;-62
2023/02/24 04:38:16;;;;;;;3.47;1.25;;;6.40;94.90;;;;;;5032098;28;20508;-62
2023/02/24 04:40:42;;;;;;;8.40;1.33;;;6.40;95.00;;;;;;5014310;28;20040;-62
2023/02/24 04:43:08;;;;;;;8.68;1.02;;;6.40;95.00;;;;;;5031791;28;20075;-62
2023/02/24 04:45:35;;;;;;;7.03;1.02;;;6.40;95.00;;;;;;5029236;28;20086;-62
2023/02/24 04:48:02;;;;;;;6.90;1.55;;;6.40;95.20;;;;;;5034427;28;20036;-62
2023/02/24 04:50:33;;;;;;;4.63;0.93;;;6.40;95.10;;;;;;5034166;28;20052;-62
2023/02/24 04:53:05;;;;;;;6.32;1.02;;;6.40;95.00;;;;;;5035422;28;20861;-62
2023/02/24 04:55:33;;;;;;;5.63;1.10;;;6.50;94.80;;;;;;5037015;28;20036;-62
2023/02/24 04:58:00;;;;;;;11.90;1.58;;;6.40;94.60;;;;;;5034312;28;20029;-62
2023/02/24 05:00:32;;;;;;;5.90;1.10;;;6.40;94.40;;;;;;5031771;28;20124;-62
2023/02/24 05:03:00;;;;;;;3.42;0.70;;;6.40;94.40;;;;;;5031174;28;20029;-62
2023/02/24 05:05:26;;;;;;;4.28;1.08;;;6.40;94.20;;;;;;5032787;28;20091;-62
2023/02/24 05:08:03;;;;;;;4.68;1.02;;;6.30;94.40;;;;;;5028790;28;20028;-63
2023/02/24 05:10:43;;;;;;;6.72;0.70;;;6.40;94.90;;;;;;5034138;28;20114;-66
2023/02/24 05:13:26;;;;;;;4.93;0.75;;;6.40;94.50;;;;;;5036452;28;20044;-62
2023/02/24 05:15:56;;;;;;;5.75;0.82;;;6.40;94.40;;;;;;5029015;28;20040;-62
2023/02/24 05:18:22;;;;;;;7.78;1.15;;;6.40;94.20;;;;;;5032757;28;20029;-62
2023/02/24 05:23:44;;;;;;;7.65;1.00;;;6.40;94.10;;;;;;5034208;28;20060;-62
2023/02/24 05:26:15;;;;;;;3.13;1.25;;;6.30;94.10;;;;;;5032285;28;20026;-62
2023/02/24 05:28:42;;;;;;;3.78;0.95;;;6.30;94.10;;;;;;5028846;28;20097;-60
2023/02/24 05:31:16;;;;;;;4.45;0.70;;;6.30;94.20;;;;;;5035794;28;20033;-62
2023/02/24 05:33:44;;;;;;;7.40;1.17;;;6.30;94.20;;;;;;5027854;28;20025;-62
2023/02/24 05:36:16;;;;;;;10.50;1.38;;;6.20;92.90;;;;;;5031731;28;20037;-62
2023/02/24 05:38:46;;;;;;;7.05;1.23;;;6.10;93.60;;;;;;5032048;28;20029;-61
2023/02/24 05:41:17;;;;;;;9.40;1.00;;;6.10;94.00;;;;;;5026146;28;20125;-62
2023/02/24 05:43:51;;;;;;;9.68;1.23;;;6.20;94.30;;;;;;5032365;28;20037;-61
2023/02/24 05:46:31;;;;;;;6.40;1.02;;;6.20;93.90;;;;;;5029274;28;20033;-62
2023/02/24 05:49:07;;;;;;;3.78;1.30;;;6.20;94.10;;;;;;5031747;28;20172;-61
2023/02/24 05:51:35;;;;;;;8.13;1.55;;;6.20;93.80;;;;;;5032103;28;20059;-61
2023/02/24 05:54:10;;;;;;;5.10;1.00;;;6.20;93.70;;;;;;5035089;28;20033;-62
2023/02/24 05:56:38;;;;;;;4.03;0.75;;;6.20;93.60;;;;;;5033947;28;20110;-62
2023/02/24 05:59:07;;;;;;;5.18;1.00;;;6.20;94.00;;;;;;5027578;28;20888;-62
2023/02/24 06:01:40;;;;;;;9.18;1.30;;;6.20;94.00;;;;;;5031842;28;20515;-62
2023/02/24 06:04:07;;;;;;;4.05;1.13;;;6.20;93.60;;;;;;5031626;28;20170;-62
2023/02/24 06:06:38;;;;;;;10.38;1.67;;;6.10;93.50;;;;;;5033261;28;20029;-62
2023/02/24 06:09:08;;;;;;;4.68;0.60;;;6.10;93.60;;;;;;5036354;28;20033;-62
2023/02/24 06:11:34;;;;;;;8.93;1.33;;;6.10;93.20;;;;;;5033506;28;20043;-62
2023/02/24 06:14:00;;;;;;;6.72;0.70;;;6.10;93.50;;;;;;5032945;28;20404;-62
2023/02/24 06:16:26;;;;;;;6.80;1.25;;;6.10;93.30;;;;;;5031039;28;20041;-62
2023/02/24 06:18:55;;;;;;;3.80;1.13;;;6.10;93.50;;;;;;5030037;28;20043;-62
2023/02/24 06:21:21;;;;;;;7.22;1.40;;;6.20;93.60;;;;;;5036470;28;20028;-61
2023/02/24 06:23:47;;;;;;;4.22;0.85;;;6.20;93.40;;;;;;5033614;28;20033;-62
2023/02/24 06:26:18;;;;;;;6.68;1.15;;;6.20;92.60;;;;;;5029256;28;20761;-62
2023/02/24 06:28:45;;;;;;;6.95;0.82;;;6.20;92.50;;;;;;5029840;28;20079;-62
2023/02/24 06:31:12;;;;;;;7.10;0.80;;;6.20;92.80;;;;;;5033923;28;20036;-62
2023/02/24 06:33:40;;;;;;;5.28;0.90;;;6.20;92.10;;;;;;5028605;28;20108;-62
2023/02/24 06:36:06;;;;;;;6.18;1.17;;;6.20;92.50;;;;;;5033660;28;20044;-61
2023/02/24 06:38:34;;;;;;;7.05;1.23;;;6.20;92.70;;;;;;5023022;28;20371;-62
2023/02/24 06:41:03;;;;;;;7.45;1.25;;;6.20;92.00;;;;;;5033087;28;20043;-61
2023/02/24 06:43:31;;;;;;;5.57;0.90;;;6.20;91.40;;;;;;5027940;28;20678;-62
2023/02/24 06:45:58;;;;;;;6.72;1.30;;;6.20;91.20;;;;;;5029809;28;20494;-62
2023/02/24 06:48:24;;;;;;;2.97;1.58;;;6.20;91.10;;;;;;5026702;28;20033;-62
2023/02/24 06:50:50;;;;;;;10.85;3.00;;;6.30;91.10;;;;;;5033471;28;20717;-62
2023/02/24 06:53:17;;;;;;;10.77;5.03;;;6.30;90.40;;;;;;5030827;28;20065;-62
2023/02/24 06:55:47;;;;;;;4.93;3.15;;;6.30;90.60;;;;;;5032910;28;20114;-62
2023/02/24 06:58:18;;;;;;;4.55;2.25;;;6.40;90.60;;;;;;5028118;28;20033;-62
2023/02/24 07:00:55;;;;;;;6.68;3.38;;;6.40;90.50;;;;;;5029866;28;20514;-62
2023/02/24 07:03:24;;;;;;;5.40;2.40;;;6.40;90.70;;;;;;5032276;28;20556;-62
2023/02/24 07:06:19;;;;;;;9.38;3.58;;;6.40;90.20;;;;;;5031578;28;20032;-62
2023/02/24 07:08:46;;;;;;;8.55;2.33;;;6.50;90.60;;;;;;5033867;28;20036;-62
2023/02/24 07:11:17;;;;;;;8.13;2.20;;;6.50;90.20;;;;;;5030130;28;20497;-61
2023/02/24 07:13:47;;;;;;;5.72;1.80;;;6.50;90.40;;;;;;5033977;28;20552;-62
2023/02/24 07:16:18;;;;;;;5.38;1.45;;;6.40;90.60;;;;;;5031275;28;20140;-62
2023/02/24 07:18:47;;;;;;;9.52;2.72;;;6.40;90.50;;;;;;5029944;28;20553;-60
2023/02/24 07:21:15;;;;;;;9.63;2.33;;;6.40;90.80;;;;;;5031735;28;20102;-62
2023/02/24 07:23:43;;;;;;;8.80;1.85;;;6.40;91.20;;;;;;5034723;28;20041;-62
2023/02/24 07:26:13;;;;;;;13.18;2.63;;;6.40;91.50;;;;;;5031075;28;20041;-61
2023/02/24 07:28:41;;;;;;;7.38;1.65;;;6.40;91.70;;;;;;5030854;28;20029;-62
2023/02/24 07:31:19;;;;;;;8.13;2.65;;;6.40;91.80;;;;;;5032133;28;20037;-62
2023/02/24 07:33:45;;;;;;;18.48;3.38;;;6.40;92.00;;;;;;5031595;28;20025;-62
2023/02/24 07:36:13;;;;;;;9.02;2.15;;;6.40;92.00;;;;;;5037327;28;20053;-62
2023/02/24 07:38:41;;;;;;;7.57;2.00;;;6.40;91.60;;;;;;5034484;28;20032;-62
2023/02/24 07:41:11;;;;;;;8.25;1.88;;;6.30;91.30;;;;;;5035046;28;20037;-62
2023/02/24 07:43:39;;;;;;;8.13;2.42;;;6.30;91.80;;;;;;5013595;28;20053;-62
2023/02/24 07:46:10;;;;;;;8.68;1.77;;;6.30;91.90;;;;;;5033284;28;20044;-62
2023/02/24 07:48:38;;;;;;;7.75;1.98;;;6.40;92.00;;;;;;5032995;28;20689;-62
2023/02/24 07:51:14;;;;;;;7.25;1.67;;;6.40;91.40;;;;;;5031173;28;20805;-62
2023/02/24 07:53:41;;;;;;;12.75;2.13;;;6.30;91.50;;;;;;5033057;28;20032;-62
2023/02/24 07:56:12;;;;;;;5.57;1.58;;;6.40;91.70;;;;;;5028557;28;20085;-62
2023/02/24 07:58:43;;;;;;;3.47;1.55;;;6.40;91.80;;;;;;5032782;28;20119;-61
2023/02/24 08:01:21;;;;;;;7.82;1.67;;;6.40;91.30;;;;;;5026408;28;20060;-62
2023/02/24 08:03:54;;;;;;;5.70;1.48;;;6.50;91.30;;;;;;5030903;28;20029;-62
2023/02/24 08:06:36;;;;;;;4.47;1.30;;;6.50;91.40;;;;;;5032224;28;20025;-62
2023/02/24 08:09:17;;;;;;;3.47;1.30;;;6.50;90.70;;;;;;5026620;28;20136;-62
2023/02/24 08:11:54;;;;;;;7.18;1.65;;;6.40;90.90;;;;;;5030727;28;20035;-62
2023/02/24 08:14:23;;;;;;;5.75;1.90;;;6.30;91.20;;;;;;5030593;28;20036;-62
2023/02/24 08:16:58;;;;;;;7.22;2.15;;;6.20;90.90;;;;;;5030332;28;20039;-62
2023/02/24 08:19:32;;;;;;;10.47;2.07;;;6.10;91.40;;;;;;5036793;28;20029;-61
2023/02/24 08:22:18;;;;;;;17.50;2.42;;;6.10;91.70;;;;;;5035145;28;20990;-62
2023/02/24 08:24:54;;;;;;;4.40;1.80;;;6.20;91.70;;;;;;5035895;28;20055;-62
2023/02/24 08:27:24;;;;;;;7.53;1.42;;;6.20;91.60;;;;;;5038194;28;20035;-62
2023/02/24 08:29:56;;;;;;;5.85;1.55;;;6.20;91.20;;;;;;5038904;28;20041;-61
2023/02/24 08:32:34;;;;;;;8.85;1.70;;;6.30;90.90;;;;;;5034645;28;20037;-62
2023/02/24 08:35:02;;;;;;;6.93;2.10;;;6.40;90.90;;;;;;5034743;28;20044;-61
2023/02/24 08:37:38;;;;;;;7.40;1.77;;;6.50;91.30;;;;;;5033102;28;20037;-62
2023/02/24 08:43:14;;;;;;;5.78;1.65;;;6.60;88.90;;;;;;5031682;28;20147;-61
2023/02/24 08:45:44;;;;;;;5.57;1.83;;;6.60;89.90;;;;;;5033861;28;20826;-62
2023/02/24 08:48:25;;;;;;;8.40;2.17;;;6.60;90.10;;;;;;5034284;28;20055;-61
2023/02/24 08:51:00;;;;;;;4.00;2.03;;;6.70;89.10;;;;;;5029869;28;20040;-60
2023/02/24 08:53:30;;;;;;;21.80;9.75;;;6.70;89.10;;;;;;5032533;28;20033;-61
2023/02/24 08:55:58;;;;;;;25.13;9.73;;;6.80;89.60;;;;;;5032722;28;20079;-63
2023/02/24 08:58:30;;;;;;;17.25;5.85;;;7.00;87.90;;;;;;5030321;28;20034;-62
2023/02/24 09:00:57;;;;;;;17.25;4.55;;;6.80;86.40;;;;;;5031685;28;20036;-63
2023/02/24 09:03:28;;;;;;;16.00;6.85;;;6.70;89.60;;;;;;5031396;28;20031;-61
2023/02/24 09:06:03;;;;;;;11.00;5.32;;;6.60;88.20;;;;;;5031113;28;20025;-63
2023/02/24 09:08:37;;;;;;;9.10;3.72;;;6.70;88.20;;;;;;5033277;28;20037;-62
2023/02/24 09:11:12;;;;;;;16.65;7.18;;;6.80;87.20;;;;;;5026845;28;20172;-63
2023/02/24 09:14:03;;;;;;;11.05;4.53;;;6.80;86.50;;;;;;5033872;28;20033;-63
2023/02/24 09:16:29;;;;;;;8.73;2.90;;;6.70;85.40;;;;;;5035631;28;20064;-64
2023/02/24 09:19:39;;;;;;;6.97;1.52;;;6.50;87.10;;;;;;5032474;28;20722;-63
2023/02/24 09:25:17;;;;;;;5.28;1.58;;;6.80;86.00;;;;;;4979683;28;20068;-63
2023/02/24 09:27:45;;;;;;;8.60;2.30;;;7.10;86.00;;;;;;5032085;28;20074;-63
2023/02/24 09:30:34;;;;;;;8.50;3.30;;;7.10;85.60;;;;;;5038407;28;20113;-63
2023/02/24 09:33:00;;;;;;;9.80;2.05;;;6.90;85.50;;;;;;5029102;28;20060;-64
2023/02/24 09:35:29;;;;;;;9.73;2.33;;;7.00;85.60;;;;;;5019595;28;20144;-63
2023/02/24 09:38:04;;;;;;;5.68;2.22;;;7.10;85.10;;;;;;5033023;28;20048;-63
2023/02/24 09:40:47;;;;;;;4.75;1.50;;;7.10;83.20;;;;;;5031541;28;20040;-64
2023/02/24 09:43:16;;;;;;;8.95;3.35;;;7.20;84.80;;;;;;5036341;28;20061;-63
2023/02/24 09:45:59;;;;;;;11.13;2.05;;;7.20;84.00;;;;;;5035070;28;20029;-63
2023/02/24 09:48:46;;;;;;;5.38;2.90;;;7.30;84.80;;;;;;5032152;28;20025;-64
2023/02/24 09:51:21;;;;;;;6.57;2.35;;;7.30;83.50;;;;;;5029857;28;20029;-64
2023/02/24 09:53:53;;;;;;;5.93;1.60;;;7.30;82.90;;;;;;5025933;28;20141;-63
2023/02/24 09:56:41;;;;;;;6.50;2.03;;;7.30;81.50;;;;;;5032973;28;20029;-63
2023/02/24 09:59:12;;;;;;;4.13;1.73;;;7.30;82.20;;;;;;5033086;28;20449;-64
2023/02/24 10:01:41;;;;;;;4.75;1.73;;;7.10;81.20;;;;;;5036072;28;20094;-64
2023/02/24 10:04:29;;;;;;;4.13;1.60;;;7.00;83.50;;;;;;5032731;28;20048;-64
2023/02/24 10:07:03;;;;;;;10.15;4.57;;;7.10;83.30;;;;;;5026576;28;20588;-63
2023/02/24 10:09:45;;;;;;;8.15;2.97;;;7.20;81.40;;;;;;5033319;28;20029;-64
2023/02/24 10:12:32;;;;;;;14.63;1.92;;;7.10;82.70;;;;;;5028153;28;20037;-66
2023/02/24 10:15:18;;;;;;;7.85;3.30;;;7.30;83.40;;;;;;5033313;28;20057;-64
2023/02/24 10:17:54;;;;;;;10.15;2.25;;;7.50;82.90;;;;;;5034169;28;20021;-65
2023/02/24 10:20:44;;;;;;;10.02;2.30;;;7.60;81.50;;;;;;5036807;28;20035;-67
2023/02/24 10:23:36;;;;;;;7.78;2.00;;;7.60;81.80;;;;;;5031194;28;20033;-65
2023/02/24 10:26:20;;;;;;;5.55;1.05;;;7.50;80.80;;;;;;5017658;28;20192;-66
2023/02/24 10:29:17;;;;;;;12.93;2.92;;;7.50;81.50;;;;;;5028028;28;20025;-65
2023/02/24 10:31:56;;;;;;;7.82;3.00;;;7.50;80.50;;;;;;5027872;28;20021;-65
2023/02/24 10:34:30;;;;;;;5.65;1.85;;;7.50;80.50;;;;;;5031681;28;20081;-66
2023/02/24 10:37:18;;;;;;;10.82;1.77;;;7.40;80.90;;;;;;5026204;28;20025;-65
2023/02/24 10:39:48;;;;;;;7.30;2.65;;;7.20;81.70;;;;;;5025938;28;20025;-65
2023/02/24 10:42:33;;;;;;;6.07;1.52;;;7.00;82.50;;;;;;5032325;28;20622;-63
2023/02/24 10:45:22;;;;;;;3.40;1.15;;;6.90;84.40;;;;;;5015234;28;20459;-65
2023/02/24 10:47:58;;;;;;;10.63;1.85;;;6.90;85.40;;;;;;5028802;28;20032;-65
2023/02/24 10:50:31;;;;;;;3.97;1.50;;;6.60;87.30;;;;;;5029651;28;20533;-64
2023/02/24 10:58:43;;;;;;;6.18;1.25;;;6.50;91.00;;;;;;5037534;28;20040;-64
2023/02/24 11:01:39;;;;;;;10.60;4.93;;;6.60;92.20;;;;;;5028941;28;20060;-64
2023/02/24 11:04:21;;;;;;;4.97;1.42;;;6.60;92.30;;;;;;5029987;28;20374;-65
2023/02/24 11:06:51;;;;;;;6.38;2.70;;;6.70;92.60;;;;;;5034725;28;20033;-64
2023/02/24 11:17:52;;;;;;;8.50;2.83;;;6.10;95.10;;;;;;5033823;28;20029;-65
2023/02/24 11:20:48;;;;;;;7.60;3.08;;;6.00;96.00;;;;;;5030524;28;20068;-64
2023/02/24 11:23:18;;;;;;;9.10;4.18;;;5.90;96.70;;;;;;5025396;28;20045;-64
2023/02/24 11:26:15;;;;;;;8.32;3.92;;;5.70;97.30;;;;;;5025382;28;20029;-64
2023/02/24 11:29:18;;;;;;;7.22;2.40;;;5.60;97.60;;;;;;4988207;28;20049;-63
2023/02/24 11:32:21;;;;;;;6.78;3.65;;;5.40;98.60;;;;;;5031627;28;20040;-63
2023/02/24 11:34:58;;;;;;;7.47;3.33;;;5.30;98.80;;;;;;5036886;28;20116;-62
2023/02/24 11:37:47;;;;;;;5.65;2.60;;;5.40;99.30;;;;;;5030505;28;20037;-65
2023/02/24 11:40:17;;;;;;;4.53;1.10;;;5.30;99.50;;;;;;5035310;28;20120;-65
2023/02/24 11:43:05;;;;;;;5.65;2.63;;;5.30;98.90;;;;;;5027234;28;20067;-62
2023/02/24 11:45:38;;;;;;;8.88;3.03;;;5.00;99.90;;;;;;5032666;28;20035;-64
2023/02/24 11:48:18;;;;;;;6.22;2.03;;;4.80;99.90;;;;;;5026106;28;20064;-64
2023/02/24 11:50:57;;;;;;;8.45;1.95;;;4.70;99.90;;;;;;5029582;28;20491;-65
2023/02/24 11:53:47;;;;;;;2.13;1.30;;;4.50;99.90;;;;;;5031798;28;20024;-64
2023/02/24 11:56:27;;;;;;;6.13;1.20;;;4.50;99.90;;;;;;5027661;28;20040;-64
2023/02/24 11:59:00;;;;;;;15.60;1.55;;;4.60;99.90;;;;;;5034414;28;20037;-64
2023/02/24 12:01:58;;;;;;;16.80;7.85;;;4.50;99.90;;;;;;5036537;28;20052;-65
2023/02/24 12:04:59;;;;;;;4.85;3.20;;;4.30;99.90;;;;;;5000339;28;20120;-64
2023/02/24 12:07:38;;;;;;;9.95;5.13;;;4.20;99.90;;;;;;5026698;28;20036;-63
2023/02/24 12:10:31;;;;;;;6.82;3.40;;;4.20;99.90;;;;;;5037459;28;20110;-64
2023/02/24 12:13:14;;;;;;;5.60;2.85;;;4.20;99.90;;;;;;5024304;28;20068;-65
2023/02/24 12:16:01;;;;;;;3.60;1.60;;;4.20;99.90;;;;;;5031614;28;20560;-64
2023/02/24 12:18:39;;;;;;;8.85;3.88;;;4.00;99.90;;;;;;5029631;28;20060;-64
2023/02/24 12:21:29;;;;;;;12.48;1.25;;;4.00;99.90;;;;;;5031747;28;20037;-64
2023/02/24 12:24:00;;;;;;;6.45;1.77;;;3.80;99.90;;;;;;5033715;28;20029;-64
2023/02/24 12:26:41;;;;;;;4.47;1.42;;;3.70;99.90;;;;;;5030879;28;20033;-64
2023/02/24 12:29:26;;;;;;;8.55;1.20;;;3.70;99.90;;;;;;5027845;28;20845;-65
2023/02/24 12:32:03;;;;;;;5.75;3.00;;;3.80;99.90;;;;;;5030094;28;20037;-64
2023/02/24 12:35:18;;;;;;;8.45;3.75;;;3.80;99.90;;;;;;5013658;28;20035;-64
2023/02/24 12:38:02;;;;;;;6.50;1.95;;;3.80;99.90;;;;;;4977217;28;20045;-67
2023/02/24 12:40:29;;;;;;;3.72;1.70;;;3.80;99.90;;;;;;5032707;28;20036;-65
2023/02/24 12:43:10;;;;;;;9.80;2.67;;;3.90;99.90;;;;;;5030288;28;20401;-64
2023/02/24 12:45:55;;;;;;;11.27;3.05;;;4.10;99.90;;;;;;5026466;28;20400;-65
2023/02/24 12:48:52;;;;;;;5.25;2.47;;;4.30;99.90;;;;;;5034888;28;20025;-64
2023/02/24 12:51:18;;;;;;;;;;;4.40;99.90;;;;;;5025403;28;20047;-63
2023/02/24 12:53:56;;;;;;;5.97;2.00;;;4.30;99.90;;;;;;5029448;28;19913;-65
2023/02/24 12:56:36;;;;;;;4.85;1.88;;;4.30;99.90;;;;;;5034417;28;20040;-64
2023/02/24 12:59:05;;;;;;;3.95;2.35;;;4.10;99.90;;;;;;5036639;28;20057;-64
2023/02/24 13:01:52;;;;;;;4.38;2.15;;;4.20;99.90;;;;;;5039972;28;20112;-64
2023/02/24 13:04:26;;;;;;;6.40;2.60;;;4.00;99.90;;;;;;5022012;28;20135;-65
2023/02/24 13:07:01;;;;;;;4.97;1.75;;;4.10;99.90;;;;;;5037795;28;20287;-64
2023/02/24 13:10:05;;;;;;;3.13;1.70;;;3.70;99.90;;;;;;5034898;28;20153;-64
2023/02/24 13:12:49;;;;;;;6.95;2.05;;;3.60;99.90;;;;;;5032666;28;20029;-64
2023/02/24 13:15:24;;;;;;;5.72;2.67;;;3.70;99.90;;;;;;5036394;28;20545;-64
2023/02/24 13:17:52;;;;;;;9.07;2.92;;;3.60;99.90;;;;;;5031281;28;20044;-64
2023/02/24 13:20:27;;;;;;;5.47;2.85;;;3.80;99.90;;;;;;5039593;28;20037;-64
2023/02/24 13:22:54;;;;;;;4.13;2.00;;;4.00;99.90;;;;;;5035099;28;20025;-64
2023/02/24 13:25:27;;;;;;;4.90;1.52;;;4.30;99.90;;;;;;5030482;28;20045;-64
2023/02/24 13:27:59;;;;;;;10.48;2.60;;;4.20;99.90;;;;;;5016693;28;20025;-64
2023/02/24 13:30:39;;;;;;;5.95;2.35;;;4.20;99.90;;;;;;5038504;28;20068;-64
2023/02/24 13:33:17;;;;;;;5.78;2.03;;;4.40;99.90;;;;;;5035586;28;20491;-64
2023/02/24 13:35:49;;;;;;;6.90;3.05;;;4.30;99.90;;;;;;5030254;28;20033;-64
2023/02/24 13:38:35;;;;;;;10.07;3.38;;;4.20;99.90;;;;;;5032783;28;20038;-64
2023/02/24 13:41:23;;;;;;;6.53;2.97;;;4.20;99.90;;;;;;5025766;28;20053;-64
2023/02/24 13:44:23;;;;;;;8.85;3.47;;;4.20;99.90;;;;;;5032342;28;20100;-64
2023/02/24 13:47:03;;;;;;;7.07;3.40;;;4.30;99.90;;;;;;5018863;28;20067;-64
2023/02/24 13:49:54;;;;;;;17.17;5.55;;;4.30;99.90;;;;;;5032773;28;21007;-64
2023/02/24 13:52:45;;;;;;;11.05;4.20;;;4.20;99.90;;;;;;5027994;28;20037;-64
2023/02/24 13:55:23;;;;;;;5.32;2.10;;;4.30;99.90;;;;;;5034879;28;20029;-65
2023/02/24 13:58:16;;;;;;;3.75;2.15;;;4.40;99.90;;;;;;5030738;28;20064;-64
2023/02/24 14:01:04;;;;;;;4.50;1.85;;;4.30;99.90;;;;;;5034447;28;20052;-64
2023/02/24 14:03:30;;;;;;;4.82;2.83;;;4.10;99.90;;;;;;5035368;28;20029;-64